Fosterville, Tennessee
Current Conditions -  °F | °C
As of 4:15 AM on Friday 19 Dec 2014 (Local Time) from KSYI Reporting Station
Overcast Overcast  
Wind Chill: 30°   Ceiling: 4100
Heat Index: 34°   Visibility: 7mi
Dew Point: 32°   Wind: 5mph
Humidity: 93%   Direction: 20°NNE
Pressure: 30.22"   Gusts: NA
Location:  35.65°N, 86.4°W
Report Text: KSYI 191015Z AUTO 02004KT 7SM OVC041 01/00 A3022 RMK
Loading
Personal Weather Stations






























Interactive Weather Map New forecast layout! Learn more

10-Day Weather Forecast

Advertisements
Track Severe Weather on mobile